Aérodrome :
LOGIN :

S'inscrire | Disclaimer

   EN    FR    IT 

 










Légende :    VFR   VFR Marginal   IFR   IFR Intensif   IFR Très Intensif
Visi : 
Plafond : 
>= 8 km
>= 3000ft
5 à 8 km
1000 à 3000 ft
1500m à 5 km
500 à 1000 ft
800 à 1500m
200 à 500 ft
< 800m
< 200 ft
Symboles :   Orages  Brouillard  Fortes neiges  Fortes précipitations  Vent > 20 kt
SIGMETs :   Divers  Orages  Givrage  Turbulence  Onde Orograph.  Cendres Volcan.






- Altitude de l'aérodrome : 51 ft
- Code IATA : GWT


EDXW - Westerland-Sylt Island

DERNIER METAR :
  • 162120Z AUTO 25004KT 5000 // FEW015/// SCT190/// 19/18 Q1010

METARs EXPIRÉS :
  • 162050Z AUTO 23003KT 4400 // NCD 18/18 Q1010
  • 162020Z AUTO 22003KT 5000 // NCD 19/18 Q1010
  • 161950Z AUTO 26004KT 7000 // FEW009/// 20/19 Q1009
  • 161920Z AUTO 28005KT 8000 // FEW013/// 20/18 Q1009
  • 161850Z AUTO 29005KT 9999 // BKN012/// 20/19 Q1009

Prévision TAF périmée.



MET'MAP, la Météo Aéronautique d'un coup d'oeil ! - Copyright ORBIFLY Décembre 2007 - Disclaimer

ORBIFLY MET'MAP TEAM :

Programmation & Développement : Alexandra Zaïnal
Sur une idée originale de : Baudouin d'Aumeries
Soutien technique & logistique : Manuel Goepfert
Assistance : Marc-Olivier Méhu




SOURCES & CREDITS :

   NOAA